Time;durP1;ratioP1;P1;durP2;ratioP2;P2;SDS_P1;SDS_P2;PMS_P1;PMS_P2;Temp;Humidity;BMP_temperature;BMP_pressure;BME280_temperature;BME280_humidity;BME280_pressure;Samples;Min_cycle;Max_cycle;Signal;HPM_P1;HPM_P2
2022/04/19 00:00:18;;;;;;;1.38;1.15;;;;;;;;;;7396265;19;20014;-83
2022/04/19 00:02:44;;;;;;;1.70;0.88;;;;;;;;;;7398747;19;20003;-82
2022/04/19 00:05:09;;;;;;;1.80;1.08;;;;;;;;;;7393456;19;20011;-82
2022/04/19 00:07:36;;;;;;;2.42;1.35;;;;;;;;;;7393077;19;20006;-82
2022/04/19 00:10:03;;;;;;;1.70;1.10;;;;;;;;;;7395795;19;20002;-83
2022/04/19 00:12:29;;;;;;;4.00;1.20;;;;;;;;;;7397064;19;20028;-82
2022/04/19 00:14:54;;;;;;;1.38;0.98;;;;;;;;;;7394557;19;20011;-82
2022/04/19 00:17:19;;;;;;;2.60;1.27;;;;;;;;;;7395328;19;20014;-82
2022/04/19 00:19:44;;;;;;;1.20;1.00;;;;;;;;;;7391668;19;20006;-83
2022/04/19 00:22:10;;;;;;;2.17;1.10;;;;;;;;;;7396396;19;20014;-82
2022/04/19 00:24:35;;;;;;;2.13;1.20;;;;;;;;;;7394891;19;20003;-82
2022/04/19 00:27:00;;;;;;;1.27;0.80;;;;;;;;;;7394596;19;20022;-82
2022/04/19 00:29:25;;;;;;;1.42;1.00;;;;;;;;;;7393639;19;20034;-82
2022/04/19 00:31:51;;;;;;;2.25;0.98;;;;;;;;;;7397105;19;20462;-83
2022/04/19 00:34:16;;;;;;;1.88;0.90;;;;;;;;;;7396323;19;20013;-83
2022/04/19 00:36:41;;;;;;;1.13;0.73;;;;;;;;;;7396278;19;20003;-83
2022/04/19 00:39:07;;;;;;;2.55;1.10;;;;;;;;;;7396525;19;20047;-83
2022/04/19 00:41:33;;;;;;;0.93;0.65;;;;;;;;;;7397084;19;20006;-82
2022/04/19 00:43:58;;;;;;;1.45;0.95;;;;;;;;;;7397028;19;20014;-83
2022/04/19 00:46:24;;;;;;;2.05;0.98;;;;;;;;;;7399214;19;20018;-82
2022/04/19 00:48:52;;;;;;;1.80;1.10;;;;;;;;;;7396118;19;20010;-82
2022/04/19 00:51:18;;;;;;;3.13;1.30;;;;;;;;;;7403924;19;20379;-83
2022/04/19 00:53:45;;;;;;;1.92;1.38;;;;;;;;;;7403775;19;20014;-83
2022/04/19 00:56:11;;;;;;;1.38;0.95;;;;;;;;;;7404080;19;20018;-83
2022/04/19 00:58:36;;;;;;;2.22;1.23;;;;;;;;;;7403374;19;20299;-82
2022/04/19 01:01:03;;;;;;;2.05;1.13;;;;;;;;;;7404558;19;20446;-82
2022/04/19 01:03:28;;;;;;;1.80;1.15;;;;;;;;;;7407653;19;20010;-82
2022/04/19 01:05:55;;;;;;;1.63;1.00;;;;;;;;;;7403741;19;20432;-83
2022/04/19 01:08:22;;;;;;;1.10;0.88;;;;;;;;;;7407003;19;20003;-82
2022/04/19 01:10:48;;;;;;;1.65;1.05;;;;;;;;;;7405856;19;20066;-82
2022/04/19 01:13:17;;;;;;;2.42;0.88;;;;;;;;;;7403114;19;20012;-82
2022/04/19 01:15:49;;;;;;;2.58;0.90;;;;;;;;;;7405809;19;20011;-82
2022/04/19 01:18:23;;;;;;;1.92;1.20;;;;;;;;;;7404499;19;20010;-82
2022/04/19 01:20:49;;;;;;;1.58;0.70;;;;;;;;;;7403365;19;20018;-82
2022/04/19 01:23:18;;;;;;;3.72;0.70;;;;;;;;;;7405439;19;20437;-83
2022/04/19 01:25:43;;;;;;;1.38;0.82;;;;;;;;;;7403642;19;20011;-82
2022/04/19 01:28:08;;;;;;;1.27;0.75;;;;;;;;;;7407186;19;20181;-82
2022/04/19 01:30:34;;;;;;;2.20;0.73;;;;;;;;;;7402004;19;20006;-82
2022/04/19 01:32:59;;;;;;;1.58;1.30;;;;;;;;;;7399399;19;20006;-82
2022/04/19 01:35:24;;;;;;;1.65;1.20;;;;;;;;;;7398493;19;20039;-82
2022/04/19 01:37:51;;;;;;;3.65;1.30;;;;;;;;;;7400569;19;20002;-82
2022/04/19 01:40:17;;;;;;;4.10;1.40;;;;;;;;;;7397462;19;20027;-82
2022/04/19 01:42:52;;;;;;;2.08;1.17;;;;;;;;;;7403279;19;20014;-82
2022/04/19 01:45:25;;;;;;;1.17;0.90;;;;;;;;;;7401650;19;19999;-85
2022/04/19 01:47:51;;;;;;;1.63;0.85;;;;;;;;;;7423417;19;20015;-82
2022/04/19 01:50:18;;;;;;;3.10;1.20;;;;;;;;;;7426955;19;20016;-82
2022/04/19 01:52:45;;;;;;;1.83;0.93;;;;;;;;;;7430205;19;20065;-82
2022/04/19 01:55:13;;;;;;;1.73;1.20;;;;;;;;;;7428094;19;20035;-82
2022/04/19 01:57:41;;;;;;;0.65;0.65;;;;;;;;;;7427435;19;20079;-82
2022/04/19 02:00:07;;;;;;;1.23;0.85;;;;;;;;;;7427510;19;19999;-82
2022/04/19 02:02:32;;;;;;;0.95;0.85;;;;;;;;;;7429653;19;20022;-82
2022/04/19 02:04:57;;;;;;;1.70;1.30;;;;;;;;;;7427265;19;20003;-82
2022/04/19 02:07:23;;;;;;;1.10;0.85;;;;;;;;;;7426799;19;20011;-82
2022/04/19 02:09:48;;;;;;;1.33;1.05;;;;;;;;;;7428269;19;20010;-82
2022/04/19 02:12:13;;;;;;;1.55;1.10;;;;;;;;;;7429029;19;20014;-82
2022/04/19 02:14:41;;;;;;;1.95;1.05;;;;;;;;;;7429251;19;20019;-82
2022/04/19 02:17:10;;;;;;;1.20;0.90;;;;;;;;;;7426666;19;20014;-82
2022/04/19 02:19:36;;;;;;;1.52;1.02;;;;;;;;;;7428285;19;20056;-82
2022/04/19 02:22:03;;;;;;;2.40;1.25;;;;;;;;;;7427269;19;20113;-82
2022/04/19 02:24:29;;;;;;;3.10;1.50;;;;;;;;;;7427347;19;19991;-82
2022/04/19 02:26:54;;;;;;;2.78;1.50;;;;;;;;;;7423713;19;19998;-82
2022/04/19 02:29:19;;;;;;;2.60;1.10;;;;;;;;;;7427045;19;20014;-82
2022/04/19 02:31:45;;;;;;;4.70;1.33;;;;;;;;;;7426946;19;19990;-82
2022/04/19 02:34:11;;;;;;;1.83;1.02;;;;;;;;;;7428399;19;20001;-82
2022/04/19 02:36:36;;;;;;;2.35;1.40;;;;;;;;;;7426450;19;19998;-82
2022/04/19 02:39:01;;;;;;;1.55;1.08;;;;;;;;;;7425769;19;20026;-82
2022/04/19 02:41:28;;;;;;;3.10;1.30;;;;;;;;;;7428000;19;20014;-82
2022/04/19 02:43:53;;;;;;;3.45;1.20;;;;;;;;;;7426122;19;19987;-82
2022/04/19 02:46:18;;;;;;;2.15;1.30;;;;;;;;;;7427007;19;20041;-82
2022/04/19 02:48:44;;;;;;;2.53;1.35;;;;;;;;;;7428223;19;19991;-81
2022/04/19 02:51:09;;;;;;;3.42;1.48;;;;;;;;;;7424991;19;20007;-82
2022/04/19 02:53:36;;;;;;;3.80;1.45;;;;;;;;;;7426122;19;20010;-81
2022/04/19 02:56:03;;;;;;;3.90;1.63;;;;;;;;;;7423642;19;20058;-82
2022/04/19 02:58:28;;;;;;;3.20;1.38;;;;;;;;;;7427022;19;20107;-81
2022/04/19 03:00:55;;;;;;;3.00;1.13;;;;;;;;;;7422063;19;20011;-81
2022/04/19 03:03:20;;;;;;;3.45;1.40;;;;;;;;;;7423731;19;20121;-81
2022/04/19 03:05:46;;;;;;;2.42;1.35;;;;;;;;;;7424400;19;20063;-82
2022/04/19 03:08:11;;;;;;;2.00;1.38;;;;;;;;;;7423662;19;19998;-81
2022/04/19 03:10:36;;;;;;;1.48;1.10;;;;;;;;;;7417498;19;20006;-81
2022/04/19 03:13:02;;;;;;;2.75;1.50;;;;;;;;;;7411132;19;20107;-82
2022/04/19 03:15:27;;;;;;;2.25;1.15;;;;;;;;;;7410891;19;19995;-82
2022/04/19 03:17:52;;;;;;;2.70;1.15;;;;;;;;;;7423613;19;19994;-81
2022/04/19 03:20:17;;;;;;;1.65;1.00;;;;;;;;;;7419936;19;20043;-82
2022/04/19 03:28:11;;;;;;;1.85;0.90;;;;;;;;;;7405197;19;20027;-81
2022/04/19 03:30:36;;;;;;;3.28;1.20;;;;;;;;;;7405759;19;20006;-82
2022/04/19 03:33:01;;;;;;;0.93;0.88;;;;;;;;;;7405313;19;19998;-81
2022/04/19 03:35:27;;;;;;;1.73;1.00;;;;;;;;;;7400753;19;20015;-81
2022/04/19 03:37:52;;;;;;;1.73;0.98;;;;;;;;;;7401895;19;20002;-82
2022/04/19 03:40:17;;;;;;;1.15;1.00;;;;;;;;;;7401622;19;20123;-82
2022/04/19 03:42:43;;;;;;;3.83;1.58;;;;;;;;;;7401599;19;20359;-81
2022/04/19 03:45:09;;;;;;;2.90;1.30;;;;;;;;;;7405112;19;20078;-82
2022/04/19 03:47:35;;;;;;;1.70;1.17;;;;;;;;;;7400568;19;20034;-82
2022/04/19 03:50:01;;;;;;;1.52;1.08;;;;;;;;;;7400401;19;20010;-81
2022/04/19 03:52:27;;;;;;;2.45;1.10;;;;;;;;;;7403070;19;20426;-81
2022/04/19 03:54:52;;;;;;;2.08;1.10;;;;;;;;;;7400956;19;20002;-82
2022/04/19 03:57:18;;;;;;;1.10;0.95;;;;;;;;;;7399376;19;20354;-82
2022/04/19 03:59:44;;;;;;;1.65;1.00;;;;;;;;;;7399224;19;20014;-81
2022/04/19 04:02:10;;;;;;;2.42;1.00;;;;;;;;;;7399199;19;20442;-81
2022/04/19 04:04:36;;;;;;;0.90;0.80;;;;;;;;;;7401295;19;20017;-82
2022/04/19 04:07:02;;;;;;;3.30;1.10;;;;;;;;;;7398204;19;20034;-82
2022/04/19 04:09:32;;;;;;;1.58;0.95;;;;;;;;;;7403274;19;20009;-82
2022/04/19 04:12:06;;;;;;;0.77;0.70;;;;;;;;;;7402226;19;20454;-82
2022/04/19 04:14:32;;;;;;;1.15;0.90;;;;;;;;;;7401321;19;20006;-81
2022/04/19 04:16:58;;;;;;;1.30;0.98;;;;;;;;;;7399586;19;19999;-82
2022/04/19 04:19:23;;;;;;;3.00;1.50;;;;;;;;;;7397236;19;20034;-81
2022/04/19 04:21:49;;;;;;;1.00;0.90;;;;;;;;;;7397490;19;20011;-80
2022/04/19 04:24:14;;;;;;;1.08;0.68;;;;;;;;;;7397458;19;19995;-80
2022/04/19 04:26:39;;;;;;;1.08;0.75;;;;;;;;;;7382417;19;20015;-80
2022/04/19 04:29:04;;;;;;;1.35;0.90;;;;;;;;;;7409673;19;20048;-80
2022/04/19 04:31:30;;;;;;;2.10;1.20;;;;;;;;;;7406084;19;20016;-80
2022/04/19 04:33:55;;;;;;;2.40;1.30;;;;;;;;;;7414043;19;20450;-81
2022/04/19 04:36:20;;;;;;;1.90;1.10;;;;;;;;;;7413946;19;20038;-82
2022/04/19 04:38:46;;;;;;;2.35;1.23;;;;;;;;;;7410439;19;20062;-80
2022/04/19 04:41:11;;;;;;;2.17;1.65;;;;;;;;;;7403956;19;19994;-80
2022/04/19 04:43:38;;;;;;;4.07;2.13;;;;;;;;;;7405658;19;20039;-81
2022/04/19 04:51:31;;;;;;;1.80;1.40;;;;;;;;;;7398434;19;20015;-79
2022/04/19 04:53:56;;;;;;;1.55;1.15;;;;;;;;;;7402183;19;20006;-80
2022/04/19 04:56:23;;;;;;;2.67;1.40;;;;;;;;;;7400641;19;20015;-79
2022/04/19 04:58:49;;;;;;;0.93;0.82;;;;;;;;;;7403546;19;20002;-80
2022/04/19 05:01:14;;;;;;;2.42;1.60;;;;;;;;;;7398971;19;20077;-80
2022/04/19 05:03:39;;;;;;;2.50;1.40;;;;;;;;;;7398240;19;20058;-81
2022/04/19 05:06:05;;;;;;;2.50;1.10;;;;;;;;;;7399625;19;20011;-81
2022/04/19 05:08:30;;;;;;;1.52;1.00;;;;;;;;;;7402533;19;19991;-81
2022/04/19 05:10:55;;;;;;;2.40;1.20;;;;;;;;;;7402286;19;20024;-82
2022/04/19 05:13:21;;;;;;;2.20;1.13;;;;;;;;;;7402835;19;20120;-82
2022/04/19 05:15:46;;;;;;;1.10;0.98;;;;;;;;;;7403032;19;20002;-79
2022/04/19 05:18:11;;;;;;;2.28;1.20;;;;;;;;;;7400639;19;20003;-79
2022/04/19 05:20:37;;;;;;;3.63;1.13;;;;;;;;;;7397220;19;20562;-81
2022/04/19 05:23:02;;;;;;;2.10;1.38;;;;;;;;;;7396730;19;20521;-80
2022/04/19 05:25:27;;;;;;;2.08;1.20;;;;;;;;;;7396782;19;20417;-78
2022/04/19 05:27:52;;;;;;;2.35;1.15;;;;;;;;;;7390330;19;20118;-80
2022/04/19 05:30:18;;;;;;;1.23;1.10;;;;;;;;;;7396499;19;20378;-79
2022/04/19 05:32:43;;;;;;;2.42;1.30;;;;;;;;;;7394696;19;20057;-78
2022/04/19 05:35:08;;;;;;;2.97;1.30;;;;;;;;;;7401166;19;20480;-78
2022/04/19 05:37:37;;;;;;;2.30;1.20;;;;;;;;;;7399852;19;20027;-80
2022/04/19 05:40:04;;;;;;;2.53;1.27;;;;;;;;;;7394610;19;20010;-81
2022/04/19 05:42:30;;;;;;;1.52;1.13;;;;;;;;;;7395735;19;20015;-82
2022/04/19 05:44:55;;;;;;;1.60;1.17;;;;;;;;;;7393141;19;20018;-81
2022/04/19 05:47:20;;;;;;;3.90;1.10;;;;;;;;;;7384596;19;20015;-80
2022/04/19 05:49:46;;;;;;;2.55;1.30;;;;;;;;;;7395320;19;20014;-82
2022/04/19 05:52:11;;;;;;;3.00;1.40;;;;;;;;;;7395408;19;20022;-79
2022/04/19 05:54:36;;;;;;;3.70;1.77;;;;;;;;;;7392248;19;20055;-82
2022/04/19 05:57:02;;;;;;;4.05;1.95;;;;;;;;;;7378398;19;20015;-83
2022/04/19 05:59:27;;;;;;;2.15;1.70;;;;;;;;;;7394347;19;20055;-83
2022/04/19 06:04:54;;;;;;;2.67;1.52;;;;;;;;;;7392956;19;20557;-82
2022/04/19 06:07:23;;;;;;;1.65;1.30;;;;;;;;;;7393692;19;20003;-83
2022/04/19 06:09:48;;;;;;;2.60;1.35;;;;;;;;;;7391869;19;20133;-84
2022/04/19 06:12:14;;;;;;;3.22;1.13;;;;;;;;;;7395501;19;20022;-83
2022/04/19 06:14:39;;;;;;;2.08;1.13;;;;;;;;;;7391536;19;20304;-82
2022/04/19 06:17:05;;;;;;;1.83;1.35;;;;;;;;;;7393785;19;20006;-83
2022/04/19 06:19:30;;;;;;;3.30;1.70;;;;;;;;;;7394785;19;20066;-83
2022/04/19 06:21:56;;;;;;;2.45;1.40;;;;;;;;;;7394919;19;20010;-81
2022/04/19 06:28:06;;;;;;;3.40;1.95;;;;;;;;;;7394487;19;20047;-82
2022/04/19 06:30:34;;;;;;;2.28;1.48;;;;;;;;;;7389033;19;20049;-83
2022/04/19 06:32:59;;;;;;;2.55;1.88;;;;;;;;;;7386592;19;20017;-83
2022/04/19 06:35:24;;;;;;;3.67;1.92;;;;;;;;;;7393685;19;20077;-84
2022/04/19 06:37:50;;;;;;;3.10;1.98;;;;;;;;;;7390498;19;20015;-81
2022/04/19 06:40:15;;;;;;;3.33;2.13;;;;;;;;;;7395889;19;20011;-82
2022/04/19 06:42:41;;;;;;;4.57;2.00;;;;;;;;;;7396905;19;19999;-83
2022/04/19 06:45:07;;;;;;;2.45;2.05;;;;;;;;;;7396005;19;20026;-82
2022/04/19 06:47:34;;;;;;;3.90;1.80;;;;;;;;;;7393354;19;20041;-82
2022/04/19 06:50:00;;;;;;;3.90;1.77;;;;;;;;;;7394732;19;20111;-82
2022/04/19 06:52:25;;;;;;;2.83;2.00;;;;;;;;;;7399676;19;20018;-82
2022/04/19 06:54:51;;;;;;;3.17;1.63;;;;;;;;;;7396921;19;20106;-82
2022/04/19 06:57:16;;;;;;;2.20;1.60;;;;;;;;;;7392246;19;20010;-82
2022/04/19 06:59:41;;;;;;;3.10;2.03;;;;;;;;;;7383348;19;20010;-82
2022/04/19 07:02:07;;;;;;;2.80;1.83;;;;;;;;;;7390160;19;20003;-82
2022/04/19 07:04:32;;;;;;;3.75;1.90;;;;;;;;;;7396129;19;20338;-82
2022/04/19 07:06:58;;;;;;;5.88;1.70;;;;;;;;;;7397889;19;20059;-82
2022/04/19 07:09:23;;;;;;;3.78;1.70;;;;;;;;;;7398905;19;20016;-82
2022/04/19 07:11:48;;;;;;;2.72;1.70;;;;;;;;;;7397663;19;20010;-82
2022/04/19 07:14:13;;;;;;;2.53;1.90;;;;;;;;;;7393895;19;20019;-82
2022/04/19 07:16:39;;;;;;;3.53;1.95;;;;;;;;;;7394576;19;20458;-81
2022/04/19 07:19:04;;;;;;;3.67;2.25;;;;;;;;;;7395877;19;20003;-83
2022/04/19 07:27:24;;;;;;;3.30;1.90;;;;;;;;;;7392735;19;20033;-82
2022/04/19 07:29:58;;;;;;;5.47;2.00;;;;;;;;;;7388416;19;20375;-82
2022/04/19 07:32:36;;;;;;;3.00;1.95;;;;;;;;;;7396461;19;20002;-82
2022/04/19 07:35:24;;;;;;;4.05;1.98;;;;;;;;;;7390724;19;20006;-81
2022/04/19 07:37:51;;;;;;;6.30;1.98;;;;;;;;;;7388114;19;20196;-80
2022/04/19 07:40:16;;;;;;;2.65;1.70;;;;;;;;;;7391750;19;20310;-81
2022/04/19 07:43:09;;;;;;;2.58;1.90;;;;;;;;;;7397851;19;20003;-80
2022/04/19 07:45:41;;;;;;;;;;;;;;;;;;7398334;19;20006;-80
2022/04/19 07:48:34;;;;;;;3.38;1.92;;;;;;;;;;7391591;19;19958;-79
2022/04/19 07:51:00;;;;;;;2.85;1.90;;;;;;;;;;7392397;19;20006;-79
2022/04/19 07:53:25;;;;;;;3.65;1.67;;;;;;;;;;7392445;19;20022;-80
2022/04/19 07:55:50;;;;;;;4.93;1.95;;;;;;;;;;7395513;19;20062;-79
2022/04/19 07:58:15;;;;;;;3.85;2.15;;;;;;;;;;7392773;19;20014;-79
2022/04/19 08:00:43;;;;;;;3.05;1.83;;;;;;;;;;7392008;19;20007;-80
2022/04/19 08:03:37;;;;;;;3.90;2.00;;;;;;;;;;7390040;19;20021;-80
2022/04/19 08:06:22;;;;;;;3.22;1.98;;;;;;;;;;7386883;19;20014;-78
2022/04/19 08:08:47;;;;;;;4.88;1.98;;;;;;;;;;7387296;19;20003;-79
2022/04/19 08:11:12;;;;;;;4.25;2.40;;;;;;;;;;7391019;19;19995;-80
2022/04/19 08:13:38;;;;;;;4.35;2.08;;;;;;;;;;7392259;19;20020;-80
2022/04/19 08:16:05;;;;;;;3.60;2.28;;;;;;;;;;7395865;19;20029;-82
2022/04/19 08:18:30;;;;;;;4.90;2.17;;;;;;;;;;7394649;19;20013;-80
2022/04/19 08:20:55;;;;;;;3.22;2.00;;;;;;;;;;7392518;19;20354;-80
2022/04/19 08:23:21;;;;;;;4.18;2.50;;;;;;;;;;7390355;19;20015;-81
2022/04/19 08:25:46;;;;;;;5.00;2.15;;;;;;;;;;7394013;19;19999;-82
2022/04/19 08:28:12;;;;;;;3.33;2.20;;;;;;;;;;7396648;19;20609;-79
2022/04/19 08:30:37;;;;;;;2.83;1.92;;;;;;;;;;7394884;19;20064;-78
2022/04/19 08:33:38;;;;;;;3.42;2.22;;;;;;;;;;7392228;19;19991;-81
2022/04/19 08:36:16;;;;;;;6.35;2.47;;;;;;;;;;7392367;19;20017;-81
2022/04/19 08:39:16;;;;;;;;;;;;;;;;;;;;;
2022/04/19 08:41:42;;;;;;;3.58;2.22;;;;;;;;;;7396342;19;19998;-80
2022/04/19 08:44:19;;;;;;;3.45;1.85;;;;;;;;;;7391654;19;20451;-83
2022/04/19 08:47:24;;;;;;;;;;;;;;;;;;;;;
2022/04/19 08:50:43;;;;;;;3.83;2.60;;;;;;;;;;7392950;19;20007;-81
2022/04/19 08:59:11;;;;;;;3.30;2.38;;;;;;;;;;7393492;19;20034;-80
2022/04/19 09:01:38;;;;;;;3.50;2.33;;;;;;;;;;7393997;19;20415;-81
2022/04/19 09:04:07;;;;;;;5.15;2.55;;;;;;;;;;7395656;19;20010;-82
2022/04/19 09:06:53;;;;;;;4.93;2.55;;;;;;;;;;7396316;19;19995;-81
2022/04/19 09:17:21;;;;;;;6.97;2.80;;;;;;;;;;7405180;19;20095;-81
2022/04/19 09:23:34;;;;;;;4.38;2.33;;;;;;;;;;7401231;19;20439;-81
2022/04/19 09:33:28;;;;;;;2.25;1.73;;;;;;;;;;7405746;19;19992;-83
2022/04/19 09:36:07;;;;;;;3.13;2.20;;;;;;;;;;7400998;19;20671;-83
2022/04/19 09:38:51;;;;;;;3.85;2.25;;;;;;;;;;7400937;19;20040;-85
2022/04/19 11:48:37;;;;;;;2.67;1.85;;;;;;;;;;7400072;19;20029;-86
2022/04/19 12:21:30;;;;;;;3.47;1.80;;;;;;;;;;7399146;19;20373;-82
2022/04/19 12:37:35;;;;;;;1.33;1.20;;;;;;;;;;7387211;19;19997;-82
2022/04/19 13:00:49;;;;;;;1.02;0.93;;;;;;;;;;7402063;19;20324;-80
2022/04/19 13:03:41;;;;;;;1.92;1.10;;;;;;;;;;7392163;19;20787;-80
2022/04/19 13:15:35;;;;;;;2.38;0.90;;;;;;;;;;7404512;19;20018;-82
2022/04/19 13:18:25;;;;;;;;;;;;;;;;;;7401077;19;20021;-81
2022/04/19 13:25:10;;;;;;;2.10;0.88;;;;;;;;;;7407922;19;20021;-80
2022/04/19 13:27:36;;;;;;;1.10;0.80;;;;;;;;;;7401772;19;20002;-80
2022/04/19 13:30:31;;;;;;;2.40;0.90;;;;;;;;;;7402815;19;20049;-80
2022/04/19 13:36:37;;;;;;;2.33;0.75;;;;;;;;;;7404025;19;20011;-80
2022/04/19 13:39:48;;;;;;;1.45;0.75;;;;;;;;;;7404976;19;20027;-80
2022/04/19 13:42:59;;;;;;;1.23;0.90;;;;;;;;;;7405298;19;20006;-81
2022/04/19 13:45:25;;;;;;;0.80;0.80;;;;;;;;;;7407891;19;20019;-81
2022/04/19 13:48:07;;;;;;;1.77;0.90;;;;;;;;;;7398321;19;20007;-82
2022/04/19 13:51:20;;;;;;;0.88;0.70;;;;;;;;;;7402386;19;20014;-81
2022/04/19 14:04:07;;;;;;;2.90;0.73;;;;;;;;;;7404625;19;19990;-82
2022/04/19 14:27:48;;;;;;;1.85;0.90;;;;;;;;;;7400773;19;20041;-83
2022/04/19 14:33:30;;;;;;;1.20;0.80;;;;;;;;;;7391065;19;20018;-83
2022/04/19 14:36:04;;;;;;;0.73;0.70;;;;;;;;;;7389101;19;20032;-83
2022/04/19 14:38:31;;;;;;;1.10;0.80;;;;;;;;;;7393870;19;20589;-80
2022/04/19 14:40:57;;;;;;;1.42;0.80;;;;;;;;;;7389709;19;20013;-76
2022/04/19 14:43:22;;;;;;;3.05;0.63;;;;;;;;;;7388930;19;20373;-74
2022/04/19 14:46:34;;;;;;;0.70;0.60;;;;;;;;;;7400376;19;20045;-84
2022/04/19 14:49:38;;;;;;;1.17;0.70;;;;;;;;;;7389685;19;20150;-85
2022/04/19 14:52:44;;;;;;;0.77;0.77;;;;;;;;;;7388251;19;20014;-84
2022/04/19 15:04:23;;;;;;;1.10;0.70;;;;;;;;;;7380768;19;20027;-84
2022/04/19 15:10:10;;;;;;;1.73;0.88;;;;;;;;;;7388055;19;20463;-81
2022/04/19 15:12:54;;;;;;;2.17;0.68;;;;;;;;;;7389897;19;20006;-81
2022/04/19 15:15:41;;;;;;;0.93;0.52;;;;;;;;;;7395445;19;20051;-84
2022/04/19 15:18:07;;;;;;;2.03;0.83;;;;;;;;;;7392121;19;20565;-79
2022/04/19 15:24:27;;;;;;;1.73;0.50;;;;;;;;;;7395335;19;20004;-84
2022/04/19 15:27:41;;;;;;;0.75;0.70;;;;;;;;;;7391550;19;20081;-83
2022/04/19 15:31:03;;;;;;;0.50;0.50;;;;;;;;;;7384323;19;20006;-84
2022/04/19 15:34:36;;;;;;;1.25;0.90;;;;;;;;;;7388155;19;20007;-83
2022/04/19 15:38:00;;;;;;;0.55;0.50;;;;;;;;;;7387717;19;20014;-83
2022/04/19 15:41:32;;;;;;;0.70;0.60;;;;;;;;;;7391779;19;20337;-83
2022/04/19 15:44:41;;;;;;;2.60;1.00;;;;;;;;;;7384864;19;19998;-82
2022/04/19 15:48:02;;;;;;;3.97;2.63;;;;;;;;;;7380408;19;20122;-82
2022/04/19 15:57:09;;;;;;;2.83;0.77;;;;;;;;;;7383818;19;20014;-81
2022/04/19 16:00:19;;;;;;;0.60;0.60;;;;;;;;;;7388672;19;20014;-82
2022/04/19 16:03:32;;;;;;;1.30;0.90;;;;;;;;;;7389284;19;20037;-81
2022/04/19 16:06:18;;;;;;;0.95;0.77;;;;;;;;;;7385012;19;20025;-82
2022/04/19 16:08:48;;;;;;;0.85;0.65;;;;;;;;;;7388381;19;20347;-81
2022/04/19 16:11:21;;;;;;;0.80;0.80;;;;;;;;;;7390575;19;20014;-82
2022/04/19 16:24:35;;;;;;;0.82;0.50;;;;;;;;;;7399172;19;20425;-83
2022/04/19 16:27:13;;;;;;;1.58;0.25;;;;;;;;;;7396378;19;20003;-83
2022/04/19 16:33:31;;;;;;;1.20;0.70;;;;;;;;;;7396755;19;20022;-84
2022/04/19 16:35:58;;;;;;;1.35;0.70;;;;;;;;;;7393883;19;20006;-81
2022/04/19 16:39:10;;;;;;;0.80;0.55;;;;;;;;;;7391771;19;20003;-83
2022/04/19 16:48:29;;;;;;;0.77;0.68;;;;;;;;;;7396322;19;19990;-81
2022/04/19 16:51:58;;;;;;;1.48;0.40;;;;;;;;;;7395261;19;20015;-84
2022/04/19 16:55:05;;;;;;;0.52;0.32;;;;;;;;;;7393936;19;20035;-83
2022/04/19 16:57:31;;;;;;;0.77;0.40;;;;;;;;;;7390256;19;20016;-80
2022/04/19 16:59:56;;;;;;;0.65;0.60;;;;;;;;;;7397581;19;20006;-81
2022/04/19 17:02:21;;;;;;;1.20;0.43;;;;;;;;;;7394159;19;20043;-78
2022/04/19 17:04:47;;;;;;;0.50;0.38;;;;;;;;;;7331836;19;20090;-80
2022/04/19 17:07:13;;;;;;;0.80;0.60;;;;;;;;;;7394001;19;20443;-81
2022/04/19 17:09:38;;;;;;;4.50;1.33;;;;;;;;;;7388908;19;20014;-80
2022/04/19 17:12:04;;;;;;;2.13;1.10;;;;;;;;;;7390562;19;20002;-79
2022/04/19 17:14:30;;;;;;;1.88;0.80;;;;;;;;;;7393201;19;20019;-79
2022/04/19 17:16:56;;;;;;;0.82;0.60;;;;;;;;;;7417074;19;20006;-79
2022/04/19 17:19:21;;;;;;;0.73;0.40;;;;;;;;;;7414007;19;19999;-80
2022/04/19 17:21:47;;;;;;;1.45;0.50;;;;;;;;;;7413881;19;20017;-79
2022/04/19 17:24:12;;;;;;;1.30;0.50;;;;;;;;;;7416495;19;20003;-81
2022/04/19 17:26:37;;;;;;;1.27;0.50;;;;;;;;;;7400921;19;20109;-79
2022/04/19 17:29:03;;;;;;;2.70;0.93;;;;;;;;;;7396040;19;20006;-81
2022/04/19 17:31:28;;;;;;;2.15;0.88;;;;;;;;;;7388212;19;20006;-80
2022/04/19 17:33:55;;;;;;;1.27;0.80;;;;;;;;;;7387913;19;20007;-82
2022/04/19 17:36:21;;;;;;;1.98;1.05;;;;;;;;;;7387053;19;20727;-81
2022/04/19 17:38:46;;;;;;;1.88;0.90;;;;;;;;;;7386847;19;20044;-80
2022/04/19 17:41:12;;;;;;;1.77;1.00;;;;;;;;;;7396844;19;20006;-81
2022/04/19 17:43:37;;;;;;;0.98;0.90;;;;;;;;;;7396647;19;20014;-81
2022/04/19 17:46:03;;;;;;;1.75;1.10;;;;;;;;;;7397845;19;20050;-80
2022/04/19 17:48:28;;;;;;;1.48;0.98;;;;;;;;;;7396056;19;20017;-81
2022/04/19 17:56:34;;;;;;;0.95;0.80;;;;;;;;;;7397977;19;20022;-80
2022/04/19 17:59:05;;;;;;;1.67;1.05;;;;;;;;;;7395969;19;20010;-79
2022/04/19 18:01:34;;;;;;;5.28;1.30;;;;;;;;;;7394386;19;20467;-80
2022/04/19 18:04:00;;;;;;;1.10;1.00;;;;;;;;;;7388561;19;20019;-79
2022/04/19 18:06:26;;;;;;;3.00;1.50;;;;;;;;;;7386009;19;20013;-78
2022/04/19 18:08:52;;;;;;;2.97;1.20;;;;;;;;;;7384182;19;20010;-79
2022/04/19 18:11:18;;;;;;;2.42;1.27;;;;;;;;;;7391931;19;20010;-80
2022/04/19 18:13:43;;;;;;;1.17;1.08;;;;;;;;;;7391988;19;20018;-80
2022/04/19 18:16:09;;;;;;;1.42;1.00;;;;;;;;;;7397484;19;20014;-80
2022/04/19 18:18:34;;;;;;;4.10;1.40;;;;;;;;;;7391973;19;20011;-79
2022/04/19 18:21:00;;;;;;;1.90;1.50;;;;;;;;;;7400252;19;20019;-80
2022/04/19 18:26:10;;;;;;;3.05;1.65;;;;;;;;;;7402827;19;20026;-79
2022/04/19 18:28:35;;;;;;;2.90;1.50;;;;;;;;;;7399443;19;20014;-82
2022/04/19 18:31:01;;;;;;;21.52;11.23;;;;;;;;;;7397295;19;20053;-81
2022/04/19 18:33:27;;;;;;;5.20;2.47;;;;;;;;;;7394871;19;20045;-81
2022/04/19 18:35:53;;;;;;;4.57;1.50;;;;;;;;;;7396118;19;19998;-83
2022/04/19 18:38:18;;;;;;;5.07;1.50;;;;;;;;;;7396549;19;20022;-81
2022/04/19 18:40:43;;;;;;;4.15;2.70;;;;;;;;;;7399152;19;20009;-81
2022/04/19 18:43:12;;;;;;;4.70;2.10;;;;;;;;;;7398178;19;20010;-80
2022/04/19 18:45:38;;;;;;;3.20;1.80;;;;;;;;;;7394422;19;20018;-81
2022/04/19 18:48:05;;;;;;;5.07;2.00;;;;;;;;;;7389950;19;20017;-80
2022/04/19 18:50:31;;;;;;;2.15;1.45;;;;;;;;;;7398388;19;20010;-80
2022/04/19 18:52:57;;;;;;;2.70;1.80;;;;;;;;;;7394183;19;20017;-80
2022/04/19 18:55:22;;;;;;;3.10;1.40;;;;;;;;;;7397607;19;20007;-80
2022/04/19 18:57:48;;;;;;;6.07;1.80;;;;;;;;;;7392178;19;20010;-80
2022/04/19 19:00:23;;;;;;;3.97;1.67;;;;;;;;;;7398130;19;20002;-81
2022/04/19 19:02:53;;;;;;;3.60;2.30;;;;;;;;;;7396428;19;20041;-82
2022/04/19 19:05:20;;;;;;;5.65;1.83;;;;;;;;;;7397559;19;20014;-82
2022/04/19 19:07:46;;;;;;;2.72;1.60;;;;;;;;;;7395828;19;20019;-81
2022/04/19 19:10:12;;;;;;;2.78;1.73;;;;;;;;;;7396985;19;20423;-80
2022/04/19 19:12:38;;;;;;;5.25;1.83;;;;;;;;;;7397536;19;20057;-81
2022/04/19 19:15:11;;;;;;;5.75;2.25;;;;;;;;;;7398174;19;20014;-81
2022/04/19 19:17:41;;;;;;;3.92;2.00;;;;;;;;;;7393720;19;20550;-79
2022/04/19 19:20:08;;;;;;;13.80;2.78;;;;;;;;;;7393727;19;20592;-79
2022/04/19 19:22:33;;;;;;;12.68;2.35;;;;;;;;;;7401103;19;20131;-79
2022/04/19 19:25:00;;;;;;;2.60;1.75;;;;;;;;;;7400120;19;20010;-80
2022/04/19 19:27:29;;;;;;;3.33;2.00;;;;;;;;;;7390643;19;20398;-80
2022/04/19 19:29:56;;;;;;;7.22;2.15;;;;;;;;;;7395833;19;20065;-80
2022/04/19 19:32:21;;;;;;;2.13;1.88;;;;;;;;;;7391744;19;20018;-79
2022/04/19 19:34:46;;;;;;;4.43;1.98;;;;;;;;;;7396670;19;20035;-80
2022/04/19 19:37:12;;;;;;;2.85;2.20;;;;;;;;;;7394987;19;20014;-80
2022/04/19 19:39:37;;;;;;;3.65;2.28;;;;;;;;;;7394184;19;20014;-80
2022/04/19 19:42:02;;;;;;;3.72;1.75;;;;;;;;;;7392613;19;20086;-79
2022/04/19 19:44:28;;;;;;;4.15;1.80;;;;;;;;;;7389251;19;20023;-79
2022/04/19 19:46:54;;;;;;;2.10;1.90;;;;;;;;;;7396211;19;20011;-81
2022/04/19 19:49:20;;;;;;;6.25;1.60;;;;;;;;;;7395861;19;20091;-80
2022/04/19 19:51:45;;;;;;;3.97;1.80;;;;;;;;;;7396489;19;20019;-81
2022/04/19 19:54:11;;;;;;;1.88;1.67;;;;;;;;;;7395148;19;20021;-79
2022/04/19 19:56:37;;;;;;;3.75;1.90;;;;;;;;;;7394658;19;20022;-79
2022/04/19 19:59:03;;;;;;;2.40;1.83;;;;;;;;;;7396325;19;20015;-80
2022/04/19 20:01:28;;;;;;;2.53;1.73;;;;;;;;;;7394058;19;20154;-78
2022/04/19 20:03:54;;;;;;;2.28;1.52;;;;;;;;;;7393936;19;20578;-78
2022/04/19 20:06:25;;;;;;;5.32;2.30;;;;;;;;;;7397321;19;20014;-79
2022/04/19 20:08:50;;;;;;;1.75;1.42;;;;;;;;;;7395736;19;20396;-79
2022/04/19 20:11:16;;;;;;;8.73;3.15;;;;;;;;;;7392925;19;20010;-79
2022/04/19 20:13:49;;;;;;;6.32;2.88;;;;;;;;;;7401160;19;20044;-83
2022/04/19 20:16:15;;;;;;;2.67;1.70;;;;;;;;;;7397378;19;20040;-81
2022/04/19 20:18:41;;;;;;;3.30;1.75;;;;;;;;;;7398054;19;20102;-80
2022/04/19 20:21:07;;;;;;;3.38;1.45;;;;;;;;;;7395652;19;20007;-80
2022/04/19 20:23:36;;;;;;;2.58;1.70;;;;;;;;;;7394832;19;20022;-81
2022/04/19 20:26:05;;;;;;;3.33;1.80;;;;;;;;;;7395796;19;20223;-80
2022/04/19 20:28:32;;;;;;;2.15;1.70;;;;;;;;;;7397368;19;20019;-80
2022/04/19 20:31:01;;;;;;;2.53;1.63;;;;;;;;;;7398649;19;20010;-82
2022/04/19 20:33:27;;;;;;;1.60;1.50;;;;;;;;;;7398549;19;20011;-81
2022/04/19 20:35:54;;;;;;;2.03;1.50;;;;;;;;;;7402074;19;20003;-81
2022/04/19 20:38:19;;;;;;;4.90;1.50;;;;;;;;;;7398764;19;20014;-81
2022/04/19 20:40:45;;;;;;;4.35;2.60;;;;;;;;;;7397930;19;20011;-80
2022/04/19 20:43:11;;;;;;;2.83;1.77;;;;;;;;;;7398360;19;20007;-79
2022/04/19 20:45:38;;;;;;;2.65;1.55;;;;;;;;;;7400289;19;20007;-81
2022/04/19 20:50:53;;;;;;;1.90;1.40;;;;;;;;;;7400733;19;20027;-82